Hughestown, Pennsylvania
Current Conditions -  °F | °C
As of 3:54 PM on Thursday 20 Nov 2014 (Local Time) from KAVP Reporting Station
Clear Clear  
Wind Chill: 23°   Ceiling: Unl
Heat Index: 34°   Visibility: 10mi
Dew Point: 11°   Wind: 18mph
Humidity: 38%   Direction: 260°W
Pressure: 29.85"   Gusts: 26mph
Location:  41.2973°N, 75.7399°W
Report Text: KAVP 202054Z AUTO 26016G23KT 10SM CLR 01/M12 A2985 RMK AO2 PK WND 27027/2031 SLP117 T00111117 51008
Loading
Personal Weather Stations






























Interactive Weather Map New forecast layout! Learn more

10-Day Weather Forecast

Advertisements
Track Severe Weather on mobile